sensor_id;sensor_type;location;lat;lon;timestamp;temperature;humidity
24035;DHT22;12242;50.952;4.678;2023-01-24T00:01:27;3.60;99.90
24035;DHT22;12242;50.952;4.678;2023-01-24T00:03:55;3.60;99.90
24035;DHT22;12242;50.952;4.678;2023-01-24T00:06:25;3.70;99.90
24035;DHT22;12242;50.952;4.678;2023-01-24T00:08:52;3.80;99.90
24035;DHT22;12242;50.952;4.678;2023-01-24T00:11:20;3.80;99.90
24035;DHT22;12242;50.952;4.678;2023-01-24T00:13:49;3.70;99.90
24035;DHT22;12242;50.952;4.678;2023-01-24T00:16:19;3.70;99.90
24035;DHT22;12242;50.952;4.678;2023-01-24T00:18:49;3.70;99.90
24035;DHT22;12242;50.952;4.678;2023-01-24T00:21:19;3.70;99.90
24035;DHT22;12242;50.952;4.678;2023-01-24T00:23:53;3.70;99.90
24035;DHT22;12242;50.952;4.678;2023-01-24T00:26:23;3.80;99.90
24035;DHT22;12242;50.952;4.678;2023-01-24T00:28:52;3.80;99.90
24035;DHT22;12242;50.952;4.678;2023-01-24T00:31:19;3.80;99.90
24035;DHT22;12242;50.952;4.678;2023-01-24T00:33:49;3.80;99.90
24035;DHT22;12242;50.952;4.678;2023-01-24T00:36:17;3.80;99.90
24035;DHT22;12242;50.952;4.678;2023-01-24T00:38:44;3.80;99.90
24035;DHT22;12242;50.952;4.678;2023-01-24T00:41:13;3.80;99.90
24035;DHT22;12242;50.952;4.678;2023-01-24T00:43:45;3.80;99.90
24035;DHT22;12242;50.952;4.678;2023-01-24T00:46:13;3.80;99.90
24035;DHT22;12242;50.952;4.678;2023-01-24T00:48:40;3.80;99.90
24035;DHT22;12242;50.952;4.678;2023-01-24T00:51:07;3.90;99.90
24035;DHT22;12242;50.952;4.678;2023-01-24T00:53:37;3.90;99.90
24035;DHT22;12242;50.952;4.678;2023-01-24T00:56:05;3.90;99.90
24035;DHT22;12242;50.952;4.678;2023-01-24T00:58:35;3.90;99.90
24035;DHT22;12242;50.952;4.678;2023-01-24T01:01:02;3.90;99.90
24035;DHT22;12242;50.952;4.678;2023-01-24T01:03:30;4.00;99.90
24035;DHT22;12242;50.952;4.678;2023-01-24T01:06:02;3.90;99.90
24035;DHT22;12242;50.952;4.678;2023-01-24T01:08:29;3.80;99.90
24035;DHT22;12242;50.952;4.678;2023-01-24T01:10:56;3.70;99.90
24035;DHT22;12242;50.952;4.678;2023-01-24T01:13:25;3.70;99.90
24035;DHT22;12242;50.952;4.678;2023-01-24T01:16:04;3.70;99.90
24035;DHT22;12242;50.952;4.678;2023-01-24T01:18:34;3.70;99.90
24035;DHT22;12242;50.952;4.678;2023-01-24T01:21:05;3.70;99.90
24035;DHT22;12242;50.952;4.678;2023-01-24T01:23:33;3.70;99.90
24035;DHT22;12242;50.952;4.678;2023-01-24T01:26:02;3.70;99.90
24035;DHT22;12242;50.952;4.678;2023-01-24T01:28:30;3.70;99.90
24035;DHT22;12242;50.952;4.678;2023-01-24T01:31:00;3.80;99.90
24035;DHT22;12242;50.952;4.678;2023-01-24T01:33:27;3.90;99.90
24035;DHT22;12242;50.952;4.678;2023-01-24T01:35:54;3.90;99.90
24035;DHT22;12242;50.952;4.678;2023-01-24T01:38:22;3.90;99.90
24035;DHT22;12242;50.952;4.678;2023-01-24T01:40:54;3.90;99.90
24035;DHT22;12242;50.952;4.678;2023-01-24T01:43:24;3.90;99.90
24035;DHT22;12242;50.952;4.678;2023-01-24T01:45:58;3.90;99.90
24035;DHT22;12242;50.952;4.678;2023-01-24T01:48:49;3.90;99.90
24035;DHT22;12242;50.952;4.678;2023-01-24T01:51:22;3.80;99.90
24035;DHT22;12242;50.952;4.678;2023-01-24T01:56:48;3.70;99.90
24035;DHT22;12242;50.952;4.678;2023-01-24T01:59:22;3.60;99.90
24035;DHT22;12242;50.952;4.678;2023-01-24T02:01:55;3.60;99.90
24035;DHT22;12242;50.952;4.678;2023-01-24T02:04:30;3.60;99.90
24035;DHT22;12242;50.952;4.678;2023-01-24T02:07:15;3.60;99.90
24035;DHT22;12242;50.952;4.678;2023-01-24T02:09:47;3.70;99.90
24035;DHT22;12242;50.952;4.678;2023-01-24T02:12:21;3.60;99.90
24035;DHT22;12242;50.952;4.678;2023-01-24T02:14:58;3.70;99.90
24035;DHT22;12242;50.952;4.678;2023-01-24T02:17:49;3.80;99.90
24035;DHT22;12242;50.952;4.678;2023-01-24T02:20:30;3.80;99.90
24035;DHT22;12242;50.952;4.678;2023-01-24T02:29:02;3.60;99.90
24035;DHT22;12242;50.952;4.678;2023-01-24T02:32:00;3.70;99.90
24035;DHT22;12242;50.952;4.678;2023-01-24T02:34:29;3.80;99.90
24035;DHT22;12242;50.952;4.678;2023-01-24T02:37:02;3.80;99.90
24035;DHT22;12242;50.952;4.678;2023-01-24T02:39:50;3.70;99.90
24035;DHT22;12242;50.952;4.678;2023-01-24T02:42:24;3.80;99.90
24035;DHT22;12242;50.952;4.678;2023-01-24T02:45:08;3.90;99.90
24035;DHT22;12242;50.952;4.678;2023-01-24T02:47:41;3.80;99.90
24035;DHT22;12242;50.952;4.678;2023-01-24T02:50:11;3.80;99.90
24035;DHT22;12242;50.952;4.678;2023-01-24T02:52:41;3.80;99.90
24035;DHT22;12242;50.952;4.678;2023-01-24T02:55:26;3.70;99.90
24035;DHT22;12242;50.952;4.678;2023-01-24T02:57:55;3.80;99.90
24035;DHT22;12242;50.952;4.678;2023-01-24T03:00:40;3.80;99.90
24035;DHT22;12242;50.952;4.678;2023-01-24T03:03:08;3.80;99.90
24035;DHT22;12242;50.952;4.678;2023-01-24T03:05:36;3.80;99.90
24035;DHT22;12242;50.952;4.678;2023-01-24T03:08:26;3.80;99.90
24035;DHT22;12242;50.952;4.678;2023-01-24T03:10:55;3.80;99.90
24035;DHT22;12242;50.952;4.678;2023-01-24T03:13:23;3.80;99.90
24035;DHT22;12242;50.952;4.678;2023-01-24T03:16:10;3.70;99.90
24035;DHT22;12242;50.952;4.678;2023-01-24T03:18:57;3.70;99.90
24035;DHT22;12242;50.952;4.678;2023-01-24T03:21:42;3.70;99.90
24035;DHT22;12242;50.952;4.678;2023-01-24T03:24:31;3.70;99.90
24035;DHT22;12242;50.952;4.678;2023-01-24T03:27:16;3.70;99.90
24035;DHT22;12242;50.952;4.678;2023-01-24T03:30:04;3.70;99.90
24035;DHT22;12242;50.952;4.678;2023-01-24T03:32:50;3.70;99.90
24035;DHT22;12242;50.952;4.678;2023-01-24T03:35:38;3.70;99.90
24035;DHT22;12242;50.952;4.678;2023-01-24T03:38:08;3.70;99.90
24035;DHT22;12242;50.952;4.678;2023-01-24T03:40:53;3.70;99.90
24035;DHT22;12242;50.952;4.678;2023-01-24T03:43:21;3.70;99.90
24035;DHT22;12242;50.952;4.678;2023-01-24T03:45:52;3.70;99.90
24035;DHT22;12242;50.952;4.678;2023-01-24T03:48:22;3.70;99.90
24035;DHT22;12242;50.952;4.678;2023-01-24T03:50:53;3.70;99.90
24035;DHT22;12242;50.952;4.678;2023-01-24T03:53:39;3.70;99.90
24035;DHT22;12242;50.952;4.678;2023-01-24T03:56:07;3.70;99.90
24035;DHT22;12242;50.952;4.678;2023-01-24T03:58:34;3.70;99.90
24035;DHT22;12242;50.952;4.678;2023-01-24T04:01:01;3.70;99.90
24035;DHT22;12242;50.952;4.678;2023-01-24T04:03:29;3.70;99.90
24035;DHT22;12242;50.952;4.678;2023-01-24T04:05:58;3.70;99.90
24035;DHT22;12242;50.952;4.678;2023-01-24T04:08:25;3.60;99.90
24035;DHT22;12242;50.952;4.678;2023-01-24T04:10:55;3.60;99.90
24035;DHT22;12242;50.952;4.678;2023-01-24T04:13:23;3.60;99.90
24035;DHT22;12242;50.952;4.678;2023-01-24T04:15:51;3.50;99.90
24035;DHT22;12242;50.952;4.678;2023-01-24T04:18:18;3.50;99.90
24035;DHT22;12242;50.952;4.678;2023-01-24T04:20:48;3.50;99.90
24035;DHT22;12242;50.952;4.678;2023-01-24T04:23:15;3.50;99.90
24035;DHT22;12242;50.952;4.678;2023-01-24T04:25:48;3.50;99.90
24035;DHT22;12242;50.952;4.678;2023-01-24T04:28:15;3.60;99.90
24035;DHT22;12242;50.952;4.678;2023-01-24T04:30:42;3.60;99.90
24035;DHT22;12242;50.952;4.678;2023-01-24T04:33:10;3.50;99.90
24035;DHT22;12242;50.952;4.678;2023-01-24T04:35:37;3.50;99.90
24035;DHT22;12242;50.952;4.678;2023-01-24T04:38:04;3.50;99.90
24035;DHT22;12242;50.952;4.678;2023-01-24T04:40:31;3.40;99.90
24035;DHT22;12242;50.952;4.678;2023-01-24T04:43:01;3.50;99.90
24035;DHT22;12242;50.952;4.678;2023-01-24T04:45:29;3.60;99.90
24035;DHT22;12242;50.952;4.678;2023-01-24T04:47:58;3.60;99.90
24035;DHT22;12242;50.952;4.678;2023-01-24T04:50:26;3.60;99.90
24035;DHT22;12242;50.952;4.678;2023-01-24T04:52:57;3.60;99.90
24035;DHT22;12242;50.952;4.678;2023-01-24T04:55:27;3.50;99.90
24035;DHT22;12242;50.952;4.678;2023-01-24T04:57:54;3.50;99.90
24035;DHT22;12242;50.952;4.678;2023-01-24T05:00:21;3.50;99.90
24035;DHT22;12242;50.952;4.678;2023-01-24T05:02:50;3.60;99.90
24035;DHT22;12242;50.952;4.678;2023-01-24T05:05:18;3.50;99.90
24035;DHT22;12242;50.952;4.678;2023-01-24T05:07:45;3.50;99.90
24035;DHT22;12242;50.952;4.678;2023-01-24T05:10:12;3.50;99.90
24035;DHT22;12242;50.952;4.678;2023-01-24T05:12:40;3.40;99.90
24035;DHT22;12242;50.952;4.678;2023-01-24T05:15:07;3.40;99.90
24035;DHT22;12242;50.952;4.678;2023-01-24T05:17:35;3.40;99.90
24035;DHT22;12242;50.952;4.678;2023-01-24T05:20:05;3.40;99.90
24035;DHT22;12242;50.952;4.678;2023-01-24T05:22:33;3.40;99.90
24035;DHT22;12242;50.952;4.678;2023-01-24T05:25:02;3.50;99.90
24035;DHT22;12242;50.952;4.678;2023-01-24T05:27:33;3.50;99.90
24035;DHT22;12242;50.952;4.678;2023-01-24T05:30:05;3.70;99.90
24035;DHT22;12242;50.952;4.678;2023-01-24T05:32:32;3.80;99.90
24035;DHT22;12242;50.952;4.678;2023-01-24T05:35:00;3.90;99.90
24035;DHT22;12242;50.952;4.678;2023-01-24T05:37:32;3.80;99.90
24035;DHT22;12242;50.952;4.678;2023-01-24T05:39:59;3.70;99.90
24035;DHT22;12242;50.952;4.678;2023-01-24T05:42:27;3.60;99.90
24035;DHT22;12242;50.952;4.678;2023-01-24T05:44:56;3.60;99.90
24035;DHT22;12242;50.952;4.678;2023-01-24T05:47:28;3.60;99.90
24035;DHT22;12242;50.952;4.678;2023-01-24T05:49:58;3.60;99.90
24035;DHT22;12242;50.952;4.678;2023-01-24T05:52:25;3.50;99.90
24035;DHT22;12242;50.952;4.678;2023-01-24T05:54:53;3.50;99.90
24035;DHT22;12242;50.952;4.678;2023-01-24T05:57:20;3.40;99.90
24035;DHT22;12242;50.952;4.678;2023-01-24T05:59:48;3.40;99.90
24035;DHT22;12242;50.952;4.678;2023-01-24T06:02:17;3.40;99.90
24035;DHT22;12242;50.952;4.678;2023-01-24T06:04:50;3.50;99.90
24035;DHT22;12242;50.952;4.678;2023-01-24T06:07:17;3.50;99.90
24035;DHT22;12242;50.952;4.678;2023-01-24T06:09:44;3.40;99.90
24035;DHT22;12242;50.952;4.678;2023-01-24T06:12:11;3.40;99.90
24035;DHT22;12242;50.952;4.678;2023-01-24T06:14:39;3.50;99.90
24035;DHT22;12242;50.952;4.678;2023-01-24T06:17:06;3.50;99.90
24035;DHT22;12242;50.952;4.678;2023-01-24T06:19:33;3.50;99.90
24035;DHT22;12242;50.952;4.678;2023-01-24T06:22:25;3.40;99.90
24035;DHT22;12242;50.952;4.678;2023-01-24T06:24:57;3.50;99.90
24035;DHT22;12242;50.952;4.678;2023-01-24T06:27:27;3.40;99.90
24035;DHT22;12242;50.952;4.678;2023-01-24T06:29:55;3.40;99.90
24035;DHT22;12242;50.952;4.678;2023-01-24T06:32:35;3.50;99.90
24035;DHT22;12242;50.952;4.678;2023-01-24T06:37:48;3.50;99.90
24035;DHT22;12242;50.952;4.678;2023-01-24T06:40:21;3.40;99.90
24035;DHT22;12242;50.952;4.678;2023-01-24T06:42:51;3.40;99.90
24035;DHT22;12242;50.952;4.678;2023-01-24T06:45:20;3.40;99.90
24035;DHT22;12242;50.952;4.678;2023-01-24T06:47:50;3.40;99.90
24035;DHT22;12242;50.952;4.678;2023-01-24T06:50:21;3.50;99.90
24035;DHT22;12242;50.952;4.678;2023-01-24T06:52:55;3.60;99.90
24035;DHT22;12242;50.952;4.678;2023-01-24T06:55:22;3.40;99.90
24035;DHT22;12242;50.952;4.678;2023-01-24T06:57:57;3.50;99.90
24035;DHT22;12242;50.952;4.678;2023-01-24T07:00:25;3.40;99.90
24035;DHT22;12242;50.952;4.678;2023-01-24T07:03:00;3.30;99.90
24035;DHT22;12242;50.952;4.678;2023-01-24T07:05:30;3.30;99.90
24035;DHT22;12242;50.952;4.678;2023-01-24T07:07:57;3.30;99.90
24035;DHT22;12242;50.952;4.678;2023-01-24T07:10:25;3.40;99.90
24035;DHT22;12242;50.952;4.678;2023-01-24T07:12:52;3.40;99.90
24035;DHT22;12242;50.952;4.678;2023-01-24T07:15:21;3.30;99.90
24035;DHT22;12242;50.952;4.678;2023-01-24T07:17:51;3.40;99.90
24035;DHT22;12242;50.952;4.678;2023-01-24T07:20:21;3.30;99.90
24035;DHT22;12242;50.952;4.678;2023-01-24T07:22:49;3.30;99.90
24035;DHT22;12242;50.952;4.678;2023-01-24T07:25:18;3.30;99.90
24035;DHT22;12242;50.952;4.678;2023-01-24T07:27:48;3.30;99.90
24035;DHT22;12242;50.952;4.678;2023-01-24T07:30:16;3.30;99.90
24035;DHT22;12242;50.952;4.678;2023-01-24T07:32:43;3.30;99.90
24035;DHT22;12242;50.952;4.678;2023-01-24T07:35:14;3.30;99.90
24035;DHT22;12242;50.952;4.678;2023-01-24T07:37:41;3.30;99.90
24035;DHT22;12242;50.952;4.678;2023-01-24T07:40:09;3.40;99.90
24035;DHT22;12242;50.952;4.678;2023-01-24T07:42:37;3.30;99.90
24035;DHT22;12242;50.952;4.678;2023-01-24T07:45:05;3.40;99.90
24035;DHT22;12242;50.952;4.678;2023-01-24T07:47:32;3.50;99.90
24035;DHT22;12242;50.952;4.678;2023-01-24T07:50:03;3.40;99.90
24035;DHT22;12242;50.952;4.678;2023-01-24T07:52:33;3.50;99.90
24035;DHT22;12242;50.952;4.678;2023-01-24T07:55:05;3.40;99.90
24035;DHT22;12242;50.952;4.678;2023-01-24T07:57:35;3.40;99.90
24035;DHT22;12242;50.952;4.678;2023-01-24T08:00:03;3.40;99.90
24035;DHT22;12242;50.952;4.678;2023-01-24T08:02:32;3.40;99.90
24035;DHT22;12242;50.952;4.678;2023-01-24T08:05:05;3.40;99.90
24035;DHT22;12242;50.952;4.678;2023-01-24T08:07:32;3.40;99.90
24035;DHT22;12242;50.952;4.678;2023-01-24T08:09:59;3.40;99.90
24035;DHT22;12242;50.952;4.678;2023-01-24T08:12:27;3.30;99.90
24035;DHT22;12242;50.952;4.678;2023-01-24T08:14:54;3.40;99.90
24035;DHT22;12242;50.952;4.678;2023-01-24T08:17:21;3.50;99.90
24035;DHT22;12242;50.952;4.678;2023-01-24T08:19:49;3.50;99.90
24035;DHT22;12242;50.952;4.678;2023-01-24T08:22:25;3.50;99.90
24035;DHT22;12242;50.952;4.678;2023-01-24T08:24:52;3.50;99.90
24035;DHT22;12242;50.952;4.678;2023-01-24T08:27:19;3.40;99.90
24035;DHT22;12242;50.952;4.678;2023-01-24T08:29:47;3.40;99.90
24035;DHT22;12242;50.952;4.678;2023-01-24T08:32:14;3.30;99.90
24035;DHT22;12242;50.952;4.678;2023-01-24T08:34:44;3.30;99.90
24035;DHT22;12242;50.952;4.678;2023-01-24T08:37:14;3.30;99.90
24035;DHT22;12242;50.952;4.678;2023-01-24T08:39:41;3.20;99.90
24035;DHT22;12242;50.952;4.678;2023-01-24T08:42:11;3.20;99.90
24035;DHT22;12242;50.952;4.678;2023-01-24T08:44:38;3.20;99.90
24035;DHT22;12242;50.952;4.678;2023-01-24T08:47:06;3.30;99.90
24035;DHT22;12242;50.952;4.678;2023-01-24T08:49:36;3.30;99.90
24035;DHT22;12242;50.952;4.678;2023-01-24T08:52:04;3.30;99.90
24035;DHT22;12242;50.952;4.678;2023-01-24T08:54:32;3.40;99.90
24035;DHT22;12242;50.952;4.678;2023-01-24T08:56:59;3.50;99.90
24035;DHT22;12242;50.952;4.678;2023-01-24T08:59:27;3.40;99.90
24035;DHT22;12242;50.952;4.678;2023-01-24T09:01:54;3.40;99.90
24035;DHT22;12242;50.952;4.678;2023-01-24T09:04:24;3.40;99.90
24035;DHT22;12242;50.952;4.678;2023-01-24T09:06:53;3.40;99.90
24035;DHT22;12242;50.952;4.678;2023-01-24T09:09:20;3.50;99.90
24035;DHT22;12242;50.952;4.678;2023-01-24T09:11:48;3.50;99.90
24035;DHT22;12242;50.952;4.678;2023-01-24T09:14:15;3.50;99.90
24035;DHT22;12242;50.952;4.678;2023-01-24T09:16:45;3.50;99.90
24035;DHT22;12242;50.952;4.678;2023-01-24T09:19:15;3.60;99.90
24035;DHT22;12242;50.952;4.678;2023-01-24T09:21:42;3.70;99.90
24035;DHT22;12242;50.952;4.678;2023-01-24T09:24:11;3.70;99.90
24035;DHT22;12242;50.952;4.678;2023-01-24T09:26:40;3.70;99.90
24035;DHT22;12242;50.952;4.678;2023-01-24T09:29:10;3.80;99.90
24035;DHT22;12242;50.952;4.678;2023-01-24T09:31:38;3.90;99.90
24035;DHT22;12242;50.952;4.678;2023-01-24T09:34:08;4.10;99.90
24035;DHT22;12242;50.952;4.678;2023-01-24T09:36:35;4.20;99.90
24035;DHT22;12242;50.952;4.678;2023-01-24T09:39:03;3.90;99.90
24035;DHT22;12242;50.952;4.678;2023-01-24T09:46:51;3.50;99.90
24035;DHT22;12242;50.952;4.678;2023-01-24T09:49:39;3.40;99.90
24035;DHT22;12242;50.952;4.678;2023-01-24T09:52:13;3.40;99.90
24035;DHT22;12242;50.952;4.678;2023-01-24T09:54:50;3.50;99.90
24035;DHT22;12242;50.952;4.678;2023-01-24T09:57:50;3.60;99.90
24035;DHT22;12242;50.952;4.678;2023-01-24T10:00:49;3.70;99.90
24035;DHT22;12242;50.952;4.678;2023-01-24T10:03:21;3.90;99.90
24035;DHT22;12242;50.952;4.678;2023-01-24T10:05:51;4.00;99.90
24035;DHT22;12242;50.952;4.678;2023-01-24T10:17:14;4.30;99.90
24035;DHT22;12242;50.952;4.678;2023-01-24T10:23:12;4.40;99.90
24035;DHT22;12242;50.952;4.678;2023-01-24T10:25:25;4.40;99.90
24035;DHT22;12242;50.952;4.678;2023-01-24T10:27:56;4.40;99.90
24035;DHT22;12242;50.952;4.678;2023-01-24T10:30:41;4.50;99.90
24035;DHT22;12242;50.952;4.678;2023-01-24T10:33:15;4.50;99.90
24035;DHT22;12242;50.952;4.678;2023-01-24T10:35:58;4.40;99.90
24035;DHT22;12242;50.952;4.678;2023-01-24T10:38:27;4.30;99.90
24035;DHT22;12242;50.952;4.678;2023-01-24T10:41:11;4.30;99.90
24035;DHT22;12242;50.952;4.678;2023-01-24T10:43:43;4.20;99.90
24035;DHT22;12242;50.952;4.678;2023-01-24T10:48:56;4.20;99.90
24035;DHT22;12242;50.952;4.678;2023-01-24T10:51:24;4.30;99.90
24035;DHT22;12242;50.952;4.678;2023-01-24T10:53:55;4.40;99.90
24035;DHT22;12242;50.952;4.678;2023-01-24T10:56:27;4.30;99.90
24035;DHT22;12242;50.952;4.678;2023-01-24T10:59:05;4.50;99.90
24035;DHT22;12242;50.952;4.678;2023-01-24T11:01:44;4.60;99.90
24035;DHT22;12242;50.952;4.678;2023-01-24T11:04:27;4.60;99.90
24035;DHT22;12242;50.952;4.678;2023-01-24T11:06:56;4.60;99.90
24035;DHT22;12242;50.952;4.678;2023-01-24T11:09:31;4.50;99.90
24035;DHT22;12242;50.952;4.678;2023-01-24T11:11:59;4.50;99.90
24035;DHT22;12242;50.952;4.678;2023-01-24T11:14:32;4.40;99.90
24035;DHT22;12242;50.952;4.678;2023-01-24T11:17:02;4.40;99.90
24035;DHT22;12242;50.952;4.678;2023-01-24T11:19:32;4.50;99.90
24035;DHT22;12242;50.952;4.678;2023-01-24T11:22:20;4.30;99.90
24035;DHT22;12242;50.952;4.678;2023-01-24T11:24:50;4.30;99.90
24035;DHT22;12242;50.952;4.678;2023-01-24T11:27:25;4.30;99.90
24035;DHT22;12242;50.952;4.678;2023-01-24T11:30:06;4.40;99.90
24035;DHT22;12242;50.952;4.678;2023-01-24T11:33:01;4.30;99.90
24035;DHT22;12242;50.952;4.678;2023-01-24T11:35:39;4.30;99.90
24035;DHT22;12242;50.952;4.678;2023-01-24T11:40:45;4.20;99.90
24035;DHT22;12242;50.952;4.678;2023-01-24T11:46:37;4.20;99.90
24035;DHT22;12242;50.952;4.678;2023-01-24T11:49:44;4.10;99.90
24035;DHT22;12242;50.952;4.678;2023-01-24T11:55:21;4.20;99.90
24035;DHT22;12242;50.952;4.678;2023-01-24T12:11:45;4.50;99.90
24035;DHT22;12242;50.952;4.678;2023-01-24T12:23:26;4.40;99.90
24035;DHT22;12242;50.952;4.678;2023-01-24T12:25:59;4.30;99.90
24035;DHT22;12242;50.952;4.678;2023-01-24T12:28:38;4.40;99.90
24035;DHT22;12242;50.952;4.678;2023-01-24T12:31:06;4.50;99.90
24035;DHT22;12242;50.952;4.678;2023-01-24T12:34:09;4.50;99.90
24035;DHT22;12242;50.952;4.678;2023-01-24T12:36:58;4.40;99.90
24035;DHT22;12242;50.952;4.678;2023-01-24T12:39:37;4.40;99.90
24035;DHT22;12242;50.952;4.678;2023-01-24T12:42:13;4.40;99.90
24035;DHT22;12242;50.952;4.678;2023-01-24T12:44:58;4.40;99.90
24035;DHT22;12242;50.952;4.678;2023-01-24T12:50:34;4.50;99.90
24035;DHT22;12242;50.952;4.678;2023-01-24T12:53:29;4.40;99.90
24035;DHT22;12242;50.952;4.678;2023-01-24T12:56:20;4.30;99.90
24035;DHT22;12242;50.952;4.678;2023-01-24T12:58:52;4.30;99.90
24035;DHT22;12242;50.952;4.678;2023-01-24T13:07:13;4.50;99.90
24035;DHT22;12242;50.952;4.678;2023-01-24T13:10:00;4.40;99.90
24035;DHT22;12242;50.952;4.678;2023-01-24T13:12:33;4.30;99.90
24035;DHT22;12242;50.952;4.678;2023-01-24T13:15:04;4.30;99.90
24035;DHT22;12242;50.952;4.678;2023-01-24T13:18:00;4.20;99.90
24035;DHT22;12242;50.952;4.678;2023-01-24T13:21:17;4.30;99.90
24035;DHT22;12242;50.952;4.678;2023-01-24T13:24:06;4.40;99.90
24035;DHT22;12242;50.952;4.678;2023-01-24T13:26:44;4.40;99.90
24035;DHT22;12242;50.952;4.678;2023-01-24T13:29:23;4.20;99.90
24035;DHT22;12242;50.952;4.678;2023-01-24T13:32:09;4.20;99.90
24035;DHT22;12242;50.952;4.678;2023-01-24T13:34:46;4.20;99.90
24035;DHT22;12242;50.952;4.678;2023-01-24T13:37:24;4.20;99.90
24035;DHT22;12242;50.952;4.678;2023-01-24T13:42:42;4.30;99.90
24035;DHT22;12242;50.952;4.678;2023-01-24T13:47:59;4.30;99.90
24035;DHT22;12242;50.952;4.678;2023-01-24T13:50:29;4.30;99.90
24035;DHT22;12242;50.952;4.678;2023-01-24T13:53:00;4.20;99.90
24035;DHT22;12242;50.952;4.678;2023-01-24T14:00:50;4.20;99.90
24035;DHT22;12242;50.952;4.678;2023-01-24T14:03:32;4.20;99.90
24035;DHT22;12242;50.952;4.678;2023-01-24T14:08:34;4.40;99.90
24035;DHT22;12242;50.952;4.678;2023-01-24T14:11:10;4.40;99.90
24035;DHT22;12242;50.952;4.678;2023-01-24T14:19:16;4.20;99.90
24035;DHT22;12242;50.952;4.678;2023-01-24T14:21:54;4.30;99.90
24035;DHT22;12242;50.952;4.678;2023-01-24T14:24:31;4.50;99.90
24035;DHT22;12242;50.952;4.678;2023-01-24T14:27:13;4.70;99.90
24035;DHT22;12242;50.952;4.678;2023-01-24T14:29:42;4.80;99.90
24035;DHT22;12242;50.952;4.678;2023-01-24T14:32:25;4.80;99.90
24035;DHT22;12242;50.952;4.678;2023-01-24T14:35:17;4.90;99.90
24035;DHT22;12242;50.952;4.678;2023-01-24T14:37:49;5.00;99.90
24035;DHT22;12242;50.952;4.678;2023-01-24T14:40:24;4.90;99.90
24035;DHT22;12242;50.952;4.678;2023-01-24T14:42:59;4.50;99.90
24035;DHT22;12242;50.952;4.678;2023-01-24T14:45:30;4.40;99.90
24035;DHT22;12242;50.952;4.678;2023-01-24T14:47:58;4.30;99.90
24035;DHT22;12242;50.952;4.678;2023-01-24T14:50:33;4.20;99.90
24035;DHT22;12242;50.952;4.678;2023-01-24T14:53:22;4.20;99.90
24035;DHT22;12242;50.952;4.678;2023-01-24T14:55:53;4.20;99.90
24035;DHT22;12242;50.952;4.678;2023-01-24T14:58:28;4.30;99.90
24035;DHT22;12242;50.952;4.678;2023-01-24T15:00:58;4.30;99.90
24035;DHT22;12242;50.952;4.678;2023-01-24T15:03:32;4.30;99.90
24035;DHT22;12242;50.952;4.678;2023-01-24T15:06:04;4.40;99.90
24035;DHT22;12242;50.952;4.678;2023-01-24T15:08:33;4.40;99.90
24035;DHT22;12242;50.952;4.678;2023-01-24T15:11:17;4.40;99.90
24035;DHT22;12242;50.952;4.678;2023-01-24T15:13:53;4.20;99.90
24035;DHT22;12242;50.952;4.678;2023-01-24T15:16:24;4.20;99.90
24035;DHT22;12242;50.952;4.678;2023-01-24T15:19:01;4.20;99.90
24035;DHT22;12242;50.952;4.678;2023-01-24T15:21:38;4.30;99.90
24035;DHT22;12242;50.952;4.678;2023-01-24T15:24:22;4.30;99.90
24035;DHT22;12242;50.952;4.678;2023-01-24T15:26:56;4.30;99.90
24035;DHT22;12242;50.952;4.678;2023-01-24T15:29:48;4.50;99.90
24035;DHT22;12242;50.952;4.678;2023-01-24T15:43:50;4.40;99.90
24035;DHT22;12242;50.952;4.678;2023-01-24T15:46:22;4.10;99.90
24035;DHT22;12242;50.952;4.678;2023-01-24T15:54:34;4.00;99.90
24035;DHT22;12242;50.952;4.678;2023-01-24T15:57:09;4.00;99.90
24035;DHT22;12242;50.952;4.678;2023-01-24T15:59:44;4.00;99.90
24035;DHT22;12242;50.952;4.678;2023-01-24T16:02:13;4.00;99.90
24035;DHT22;12242;50.952;4.678;2023-01-24T16:04:43;4.20;99.90
24035;DHT22;12242;50.952;4.678;2023-01-24T16:07:12;4.20;99.90
24035;DHT22;12242;50.952;4.678;2023-01-24T16:09:42;4.20;99.90
24035;DHT22;12242;50.952;4.678;2023-01-24T16:12:13;4.20;99.90
24035;DHT22;12242;50.952;4.678;2023-01-24T16:14:47;4.30;99.90
24035;DHT22;12242;50.952;4.678;2023-01-24T16:17:33;4.30;99.90
24035;DHT22;12242;50.952;4.678;2023-01-24T16:20:03;4.40;99.90
24035;DHT22;12242;50.952;4.678;2023-01-24T16:22:37;4.50;99.90
24035;DHT22;12242;50.952;4.678;2023-01-24T16:25:10;4.60;99.90
24035;DHT22;12242;50.952;4.678;2023-01-24T16:27:38;4.50;99.90
24035;DHT22;12242;50.952;4.678;2023-01-24T16:30:12;4.20;99.90
24035;DHT22;12242;50.952;4.678;2023-01-24T16:32:40;4.00;99.90
24035;DHT22;12242;50.952;4.678;2023-01-24T16:35:07;4.00;99.90
24035;DHT22;12242;50.952;4.678;2023-01-24T16:37:40;3.90;99.90
24035;DHT22;12242;50.952;4.678;2023-01-24T16:40:12;4.00;99.90
24035;DHT22;12242;50.952;4.678;2023-01-24T16:42:44;4.10;99.90
24035;DHT22;12242;50.952;4.678;2023-01-24T16:45:17;4.20;99.90
24035;DHT22;12242;50.952;4.678;2023-01-24T16:47:47;4.30;99.90
24035;DHT22;12242;50.952;4.678;2023-01-24T16:50:17;4.10;99.90
24035;DHT22;12242;50.952;4.678;2023-01-24T16:52:44;4.10;99.90
24035;DHT22;12242;50.952;4.678;2023-01-24T16:55:12;4.00;99.90
24035;DHT22;12242;50.952;4.678;2023-01-24T16:57:39;3.90;99.90
24035;DHT22;12242;50.952;4.678;2023-01-24T17:00:09;3.90;99.90
24035;DHT22;12242;50.952;4.678;2023-01-24T17:02:43;3.80;99.90
24035;DHT22;12242;50.952;4.678;2023-01-24T17:05:11;3.80;99.90
24035;DHT22;12242;50.952;4.678;2023-01-24T17:07:39;3.80;99.90
24035;DHT22;12242;50.952;4.678;2023-01-24T17:10:09;3.80;99.90
24035;DHT22;12242;50.952;4.678;2023-01-24T17:12:37;3.90;99.90
24035;DHT22;12242;50.952;4.678;2023-01-24T17:15:05;3.70;99.90
24035;DHT22;12242;50.952;4.678;2023-01-24T17:17:35;3.80;99.90
24035;DHT22;12242;50.952;4.678;2023-01-24T17:20:07;3.80;99.90
24035;DHT22;12242;50.952;4.678;2023-01-24T17:22:38;3.90;99.90
24035;DHT22;12242;50.952;4.678;2023-01-24T17:25:08;3.90;99.90
24035;DHT22;12242;50.952;4.678;2023-01-24T17:27:38;3.70;99.90
24035;DHT22;12242;50.952;4.678;2023-01-24T17:30:08;3.60;99.90
24035;DHT22;12242;50.952;4.678;2023-01-24T17:32:36;3.60;99.90
24035;DHT22;12242;50.952;4.678;2023-01-24T17:35:06;3.60;99.90
24035;DHT22;12242;50.952;4.678;2023-01-24T17:37:36;3.70;99.90
24035;DHT22;12242;50.952;4.678;2023-01-24T17:40:04;3.90;99.90
24035;DHT22;12242;50.952;4.678;2023-01-24T17:42:37;4.00;99.90
24035;DHT22;12242;50.952;4.678;2023-01-24T17:45:05;4.20;99.90
24035;DHT22;12242;50.952;4.678;2023-01-24T17:47:35;4.30;99.90
24035;DHT22;12242;50.952;4.678;2023-01-24T17:50:03;4.40;99.90
24035;DHT22;12242;50.952;4.678;2023-01-24T17:52:31;4.40;99.90
24035;DHT22;12242;50.952;4.678;2023-01-24T17:54:58;4.40;99.90
24035;DHT22;12242;50.952;4.678;2023-01-24T17:57:28;4.10;99.90
24035;DHT22;12242;50.952;4.678;2023-01-24T17:59:57;3.90;99.90
24035;DHT22;12242;50.952;4.678;2023-01-24T18:02:25;3.60;99.90
24035;DHT22;12242;50.952;4.678;2023-01-24T18:04:52;3.70;99.90
24035;DHT22;12242;50.952;4.678;2023-01-24T18:07:19;3.70;99.90